Time;durP1;ratioP1;P1;durP2;ratioP2;P2;SDS_P1;SDS_P2;PMS_P1;PMS_P2;Temp;Humidity;BMP_temperature;BMP_pressure;BME280_temperature;BME280_humidity;BME280_pressure;Samples;Min_cycle;Max_cycle;Signal;HPM_P1;HPM_P2
2021/10/10 00:02:07;;;;;;;13.63;6.78;;;;;;;;;;5079001;28;20166;-65
2021/10/10 00:04:35;;;;;;;15.25;6.32;;;;;;;;;;5077584;28;20090;-64
2021/10/10 00:07:04;;;;;;;10.63;5.70;;;;;;;;;;5066771;28;20040;-64
2021/10/10 00:09:32;;;;;;;15.32;6.18;;;;;;;;;;5080812;28;20073;-64
2021/10/10 00:12:00;;;;;;;20.65;6.43;;;;;;;;;;5073470;28;20079;-64
2021/10/10 00:14:30;;;;;;;14.30;6.13;;;;;;;;;;5067533;28;20090;-65
2021/10/10 00:16:58;;;;;;;16.08;6.13;;;;;;;;;;5061824;28;20135;-64
2021/10/10 00:19:28;;;;;;;15.85;6.93;;;;;;;;;;5055981;28;20040;-64
2021/10/10 00:21:56;;;;;;;12.95;6.45;;;;;;;;;;5068418;28;20131;-67
2021/10/10 00:24:25;;;;;;;19.60;6.55;;;;;;;;;;5066155;28;20106;-64
2021/10/10 00:26:53;;;;;;;15.30;6.45;;;;;;;;;;5069569;28;20049;-64
2021/10/10 00:29:23;;;;;;;15.10;6.65;;;;;;;;;;5066433;28;20080;-65
2021/10/10 00:31:51;;;;;;;14.10;6.45;;;;;;;;;;5063231;28;20126;-65
2021/10/10 00:34:19;;;;;;;15.68;7.05;;;;;;;;;;5061474;28;20106;-65
2021/10/10 00:36:49;;;;;;;15.68;6.82;;;;;;;;;;5064044;28;20464;-65
2021/10/10 00:39:17;;;;;;;17.05;6.72;;;;;;;;;;5069737;28;20091;-65
2021/10/10 00:41:45;;;;;;;19.13;7.10;;;;;;;;;;5063596;28;20576;-66
2021/10/10 00:44:14;;;;;;;21.52;7.28;;;;;;;;;;5053765;28;20083;-64
2021/10/10 00:46:42;;;;;;;17.20;7.40;;;;;;;;;;5071195;28;20492;-64
2021/10/10 00:49:11;;;;;;;17.90;7.38;;;;;;;;;;5076851;28;20083;-64
2021/10/10 00:51:40;;;;;;;13.45;6.95;;;;;;;;;;5073276;28;20072;-65
2021/10/10 00:54:13;;;;;;;14.38;7.40;;;;;;;;;;5070254;28;20080;-64
2021/10/10 00:56:42;;;;;;;17.52;8.63;;;;;;;;;;5070165;28;20468;-65
2021/10/10 00:59:10;;;;;;;17.35;7.50;;;;;;;;;;5078151;28;20080;-64
2021/10/10 01:01:39;;;;;;;12.38;6.22;;;;;;;;;;5083101;28;20079;-65
2021/10/10 01:04:07;;;;;;;16.27;7.38;;;;;;;;;;5076520;28;20047;-65
2021/10/10 01:06:36;;;;;;;15.73;7.53;;;;;;;;;;5073892;28;20578;-64
2021/10/10 01:09:05;;;;;;;14.25;6.57;;;;;;;;;;5081283;28;20090;-65
2021/10/10 01:11:36;;;;;;;21.35;7.43;;;;;;;;;;5072053;28;20132;-64
2021/10/10 01:14:06;;;;;;;17.38;6.82;;;;;;;;;;5067790;28;20041;-64
2021/10/10 01:16:34;;;;;;;17.80;7.05;;;;;;;;;;5072823;28;20482;-64
2021/10/10 01:19:03;;;;;;;13.80;6.70;;;;;;;;;;5074500;28;20056;-65
2021/10/10 01:21:32;;;;;;;15.07;7.00;;;;;;;;;;5084084;28;20091;-63
2021/10/10 01:24:00;;;;;;;16.70;7.97;;;;;;;;;;5083630;28;20592;-64
2021/10/10 01:26:29;;;;;;;16.45;7.05;;;;;;;;;;5075703;28;20131;-64
2021/10/10 01:28:57;;;;;;;20.13;8.10;;;;;;;;;;5071380;28;20037;-64
2021/10/10 01:31:26;;;;;;;21.30;8.70;;;;;;;;;;5071525;28;20069;-64
2021/10/10 01:33:54;;;;;;;19.60;8.13;;;;;;;;;;5068822;28;20488;-64
2021/10/10 01:36:23;;;;;;;17.23;8.38;;;;;;;;;;5070369;28;20143;-64
2021/10/10 01:38:52;;;;;;;18.58;8.20;;;;;;;;;;5080963;28;20082;-66
2021/10/10 01:41:21;;;;;;;14.73;7.13;;;;;;;;;;5075707;28;20103;-64
2021/10/10 01:43:49;;;;;;;21.15;9.27;;;;;;;;;;5073722;28;20488;-65
2021/10/10 01:46:17;;;;;;;17.85;7.68;;;;;;;;;;5070168;28;20132;-64
2021/10/10 01:48:45;;;;;;;19.20;7.88;;;;;;;;;;5078639;28;20040;-65
2021/10/10 01:51:14;;;;;;;17.70;7.78;;;;;;;;;;5079355;28;20138;-65
2021/10/10 01:53:42;;;;;;;16.15;8.07;;;;;;;;;;5083050;28;20818;-65
2021/10/10 01:56:12;;;;;;;18.65;7.45;;;;;;;;;;5071110;28;20135;-67
2021/10/10 01:58:40;;;;;;;19.92;7.95;;;;;;;;;;5080492;28;20550;-65
2021/10/10 02:01:09;;;;;;;15.50;7.38;;;;;;;;;;5071503;28;20106;-65
2021/10/10 02:03:37;;;;;;;17.90;7.68;;;;;;;;;;5073307;28;20044;-65
2021/10/10 02:06:06;;;;;;;22.67;7.97;;;;;;;;;;5068117;28;20144;-64
2021/10/10 02:08:34;;;;;;;19.42;8.20;;;;;;;;;;5079615;28;20450;-64
2021/10/10 02:11:02;;;;;;;19.50;8.55;;;;;;;;;;5070954;28;20040;-65
2021/10/10 02:13:32;;;;;;;17.70;7.85;;;;;;;;;;5075629;28;20053;-65
2021/10/10 02:16:00;;;;;;;21.25;8.07;;;;;;;;;;5081424;28;20143;-64
2021/10/10 02:18:29;;;;;;;14.90;7.97;;;;;;;;;;5076337;28;20044;-65
2021/10/10 02:20:57;;;;;;;19.23;8.85;;;;;;;;;;5080500;28;20375;-65
2021/10/10 02:23:25;;;;;;;21.15;7.78;;;;;;;;;;5069722;28;20585;-65
2021/10/10 02:25:53;;;;;;;19.25;8.40;;;;;;;;;;5074946;28;20044;-65
2021/10/10 02:28:22;;;;;;;17.70;8.18;;;;;;;;;;5077313;28;20076;-65
2021/10/10 02:30:52;;;;;;;20.40;7.97;;;;;;;;;;5068742;28;20048;-66
2021/10/10 02:33:21;;;;;;;18.33;7.50;;;;;;;;;;5086223;28;20544;-64
2021/10/10 02:35:49;;;;;;;19.73;8.45;;;;;;;;;;5070247;28;20056;-64
2021/10/10 02:38:17;;;;;;;15.57;7.78;;;;;;;;;;5084851;28;20082;-64
2021/10/10 02:40:46;;;;;;;20.80;8.85;;;;;;;;;;5069273;28;20037;-64
2021/10/10 02:43:14;;;;;;;21.15;8.32;;;;;;;;;;5077607;28;20053;-64
2021/10/10 02:45:42;;;;;;;17.55;8.55;;;;;;;;;;5075145;28;20049;-65
2021/10/10 02:48:12;;;;;;;21.10;8.38;;;;;;;;;;5092595;28;20510;-66
2021/10/10 02:50:40;;;;;;;18.58;8.23;;;;;;;;;;5075836;28;20144;-64
2021/10/10 02:53:08;;;;;;;15.65;7.55;;;;;;;;;;5080452;28;20106;-65
2021/10/10 02:55:37;;;;;;;18.10;7.28;;;;;;;;;;5086604;28;20087;-66
2021/10/10 02:58:05;;;;;;;17.98;8.48;;;;;;;;;;5082703;28;20442;-65
2021/10/10 03:00:33;;;;;;;20.95;7.80;;;;;;;;;;5086212;28;20044;-65
2021/10/10 03:03:01;;;;;;;18.60;7.97;;;;;;;;;;5080485;28;20491;-66
2021/10/10 03:05:32;;;;;;;22.90;7.93;;;;;;;;;;5077241;28;20043;-66
2021/10/10 03:08:00;;;;;;;19.05;8.30;;;;;;;;;;5085906;28;20036;-65
2021/10/10 03:10:29;;;;;;;17.42;8.43;;;;;;;;;;5077911;28;20122;-65
2021/10/10 03:12:57;;;;;;;18.42;7.97;;;;;;;;;;5077517;28;20135;-64
2021/10/10 03:15:25;;;;;;;18.58;7.85;;;;;;;;;;5067650;28;20044;-65
2021/10/10 03:17:53;;;;;;;14.88;7.88;;;;;;;;;;5084052;28;20131;-64
2021/10/10 03:20:22;;;;;;;19.25;8.38;;;;;;;;;;5074555;28;20485;-64
2021/10/10 03:22:51;;;;;;;20.92;8.38;;;;;;;;;;5082553;28;20502;-65
2021/10/10 03:25:20;;;;;;;16.85;8.20;;;;;;;;;;5075672;28;20044;-65
2021/10/10 03:27:51;;;;;;;20.80;8.95;;;;;;;;;;378967;28;10023907;-64
2021/10/10 03:30:19;;;;;;;18.10;8.00;;;;;;;;;;5076331;28;20245;-64
2021/10/10 03:32:52;;;;;;;22.08;8.38;;;;;;;;;;5073468;28;20040;-65
2021/10/10 03:35:20;;;;;;;18.02;8.50;;;;;;;;;;5079601;28;20067;-65
2021/10/10 03:37:48;;;;;;;17.85;8.43;;;;;;;;;;5079630;28;20058;-65
2021/10/10 03:40:18;;;;;;;20.65;8.95;;;;;;;;;;5080557;28;20048;-65
2021/10/10 03:42:47;;;;;;;18.15;8.55;;;;;;;;;;5081025;28;20075;-64
2021/10/10 03:45:15;;;;;;;22.23;8.55;;;;;;;;;;5071389;28;20141;-64
2021/10/10 03:47:44;;;;;;;18.05;8.88;;;;;;;;;;5072722;28;20083;-65
2021/10/10 03:50:12;;;;;;;20.63;8.35;;;;;;;;;;5078847;28;20310;-65
2021/10/10 03:52:42;;;;;;;15.20;7.45;;;;;;;;;;5071333;28;20087;-67
2021/10/10 03:57:58;;;;;;;19.52;7.93;;;;;;;;;;5084675;28;20146;-65
2021/10/10 04:00:27;;;;;;;18.35;7.85;;;;;;;;;;5074649;28;20076;-64
2021/10/10 04:02:55;;;;;;;19.48;8.30;;;;;;;;;;5072612;28;20045;-66
2021/10/10 04:05:35;;;;;;;15.85;7.53;;;;;;;;;;5068726;28;20055;-65
2021/10/10 04:08:04;;;;;;;20.20;8.93;;;;;;;;;;5074306;28;20503;-65
2021/10/10 04:10:32;;;;;;;19.98;8.43;;;;;;;;;;5063448;28;20110;-66
2021/10/10 04:13:02;;;;;;;21.42;8.48;;;;;;;;;;5071014;28;20568;-66
2021/10/10 04:15:31;;;;;;;21.42;8.93;;;;;;;;;;5071889;28;20048;-65
2021/10/10 04:18:00;;;;;;;24.88;9.30;;;;;;;;;;5072254;28;20087;-64
2021/10/10 04:20:28;;;;;;;17.80;8.07;;;;;;;;;;5071177;28;20076;-64
2021/10/10 04:22:57;;;;;;;23.90;8.80;;;;;;;;;;5072541;28;20131;-64
2021/10/10 04:25:25;;;;;;;21.30;9.02;;;;;;;;;;5072158;28;20556;-66
2021/10/10 04:27:53;;;;;;;17.75;8.20;;;;;;;;;;5071557;28;20135;-65
2021/10/10 04:30:23;;;;;;;20.13;8.85;;;;;;;;;;5072566;28;20451;-64
2021/10/10 04:32:51;;;;;;;16.58;7.55;;;;;;;;;;5070931;28;20056;-65
2021/10/10 04:35:20;;;;;;;23.58;8.88;;;;;;;;;;5071811;28;20407;-65
2021/10/10 04:37:48;;;;;;;24.38;8.73;;;;;;;;;;5071578;28;20075;-65
2021/10/10 04:40:17;;;;;;;19.00;8.40;;;;;;;;;;5077954;28;20518;-65
2021/10/10 04:42:45;;;;;;;17.67;7.53;;;;;;;;;;5065412;28;20072;-65
2021/10/10 04:45:13;;;;;;;23.85;8.40;;;;;;;;;;5061696;28;20052;-65
2021/10/10 04:47:43;;;;;;;18.73;8.38;;;;;;;;;;5070722;28;20310;-65
2021/10/10 04:50:11;;;;;;;17.40;8.02;;;;;;;;;;5064538;28;20411;-66
2021/10/10 04:52:40;;;;;;;19.38;7.97;;;;;;;;;;5065719;28;20537;-65
2021/10/10 04:55:08;;;;;;;16.58;7.35;;;;;;;;;;5065761;28;20999;-65
2021/10/10 04:57:37;;;;;;;17.17;8.02;;;;;;;;;;5066236;28;20106;-66
2021/10/10 05:00:05;;;;;;;18.02;8.60;;;;;;;;;;5055537;28;20088;-65
2021/10/10 05:02:34;;;;;;;24.40;9.07;;;;;;;;;;5063208;28;20052;-65
2021/10/10 05:05:04;;;;;;;16.40;7.95;;;;;;;;;;5052777;28;20091;-66
2021/10/10 05:07:32;;;;;;;30.27;8.88;;;;;;;;;;5054481;28;20491;-64
2021/10/10 05:10:00;;;;;;;18.10;8.15;;;;;;;;;;5066298;28;20045;-65
2021/10/10 05:12:31;;;;;;;19.38;8.63;;;;;;;;;;5059974;28;20052;-65
2021/10/10 05:14:59;;;;;;;22.52;9.07;;;;;;;;;;5061741;28;20052;-66
2021/10/10 05:17:27;;;;;;;19.02;8.77;;;;;;;;;;5063343;28;20075;-65
2021/10/10 05:19:56;;;;;;;21.45;9.13;;;;;;;;;;5062270;28;20400;-66
2021/10/10 05:22:26;;;;;;;20.50;8.25;;;;;;;;;;5049089;28;20056;-64
2021/10/10 05:24:57;;;;;;;18.70;7.90;;;;;;;;;;5064023;28;20510;-66
2021/10/10 05:27:25;;;;;;;20.55;8.73;;;;;;;;;;5065496;28;20164;-65
2021/10/10 05:29:54;;;;;;;21.48;8.27;;;;;;;;;;5048304;28;20167;-67
2021/10/10 05:32:22;;;;;;;22.30;8.85;;;;;;;;;;5065224;28;20136;-64
2021/10/10 05:34:50;;;;;;;23.35;8.55;;;;;;;;;;5067132;28;20087;-66
2021/10/10 05:37:19;;;;;;;22.67;9.32;;;;;;;;;;5066503;28;20073;-65
2021/10/10 05:39:49;;;;;;;19.85;8.32;;;;;;;;;;5054473;28;20467;-65
2021/10/10 05:42:17;;;;;;;17.60;8.73;;;;;;;;;;5064441;28;20513;-64
2021/10/10 05:44:45;;;;;;;21.10;8.85;;;;;;;;;;5061097;28;20048;-64
2021/10/10 05:47:14;;;;;;;21.38;8.60;;;;;;;;;;5068223;28;20044;-65
2021/10/10 05:49:42;;;;;;;22.83;9.73;;;;;;;;;;5069766;28;20130;-65
2021/10/10 05:52:10;;;;;;;16.35;8.20;;;;;;;;;;5076108;28;20087;-65
2021/10/10 05:54:39;;;;;;;20.73;8.27;;;;;;;;;;5083206;28;20075;-65
2021/10/10 05:57:12;;;;;;;22.73;9.65;;;;;;;;;;5064329;28;20045;-67
2021/10/10 05:59:40;;;;;;;21.55;8.55;;;;;;;;;;5060827;28;20116;-64
2021/10/10 06:02:08;;;;;;;20.63;8.95;;;;;;;;;;5066416;28;20043;-65
2021/10/10 06:04:37;;;;;;;22.38;8.90;;;;;;;;;;5063483;28;20184;-66
2021/10/10 06:07:05;;;;;;;25.27;9.98;;;;;;;;;;5065752;28;20080;-65
2021/10/10 06:09:33;;;;;;;20.90;9.70;;;;;;;;;;5060808;28;20133;-65
2021/10/10 06:12:02;;;;;;;14.82;8.80;;;;;;;;;;5065800;28;20093;-67
2021/10/10 06:14:31;;;;;;;20.95;8.50;;;;;;;;;;5065359;28;20152;-68
2021/10/10 06:17:00;;;;;;;21.27;8.98;;;;;;;;;;5065352;28;20441;-64
2021/10/10 06:19:28;;;;;;;16.83;7.90;;;;;;;;;;5065993;28;20059;-65
2021/10/10 06:21:56;;;;;;;18.40;8.00;;;;;;;;;;5056131;28;20048;-67
2021/10/10 06:24:25;;;;;;;20.50;8.88;;;;;;;;;;5064079;28;20086;-65
2021/10/10 06:26:53;;;;;;;20.90;8.77;;;;;;;;;;5060532;28;20053;-65
2021/10/10 06:29:21;;;;;;;21.48;8.63;;;;;;;;;;5060046;28;20491;-64
2021/10/10 06:31:51;;;;;;;18.92;9.15;;;;;;;;;;5052737;28;20144;-64
2021/10/10 06:34:19;;;;;;;17.75;8.68;;;;;;;;;;5065116;28;20048;-65
2021/10/10 06:36:48;;;;;;;25.98;9.00;;;;;;;;;;5052145;28;20037;-64
2021/10/10 06:39:17;;;;;;;22.73;8.85;;;;;;;;;;5069023;28;20064;-65
2021/10/10 06:41:46;;;;;;;17.60;7.85;;;;;;;;;;5067480;28;20152;-65
2021/10/10 06:44:14;;;;;;;22.02;9.63;;;;;;;;;;5068860;28;20048;-65
2021/10/10 06:46:44;;;;;;;19.70;8.68;;;;;;;;;;5072681;28;20556;-65
2021/10/10 06:49:14;;;;;;;19.92;8.68;;;;;;;;;;5077383;28;20048;-65
2021/10/10 06:51:42;;;;;;;20.17;8.30;;;;;;;;;;5069822;28;20522;-64
2021/10/10 06:54:10;;;;;;;21.42;8.82;;;;;;;;;;5063193;28;20050;-65
2021/10/10 06:56:41;;;;;;;20.25;8.50;;;;;;;;;;5072354;28;20160;-64
2021/10/10 06:59:09;;;;;;;22.05;9.60;;;;;;;;;;5071497;28;20572;-64
2021/10/10 07:01:38;;;;;;;21.55;9.70;;;;;;;;;;5060849;28;20130;-67
2021/10/10 07:04:07;;;;;;;21.23;10.43;;;;;;;;;;5068751;28;20126;-64
2021/10/10 07:06:36;;;;;;;22.63;9.32;;;;;;;;;;5076677;28;20139;-64
2021/10/10 07:09:06;;;;;;;25.05;10.20;;;;;;;;;;5056904;28;20456;-65
2021/10/10 07:11:34;;;;;;;22.77;9.68;;;;;;;;;;5059604;28;20169;-65
2021/10/10 07:14:02;;;;;;;22.40;10.20;;;;;;;;;;5061333;28;20051;-66
2021/10/10 07:16:32;;;;;;;20.17;9.73;;;;;;;;;;5062634;28;20163;-68
2021/10/10 07:19:01;;;;;;;22.95;9.85;;;;;;;;;;5062185;28;20400;-65
2021/10/10 07:21:41;;;;;;;23.45;10.55;;;;;;;;;;5062063;28;20538;-65
2021/10/10 07:27:09;;;;;;;27.92;10.25;;;;;;;;;;4979585;28;20054;-65
2021/10/10 07:29:38;;;;;;;21.83;9.15;;;;;;;;;;5041153;28;20143;-67
2021/10/10 07:32:06;;;;;;;25.23;10.23;;;;;;;;;;5058081;28;20083;-67
2021/10/10 07:34:34;;;;;;;18.27;8.55;;;;;;;;;;5058502;28;20083;-64
2021/10/10 07:37:03;;;;;;;22.05;9.63;;;;;;;;;;5053255;28;20131;-65
2021/10/10 07:39:32;;;;;;;24.02;10.30;;;;;;;;;;5057506;28;20178;-65
2021/10/10 07:42:02;;;;;;;29.58;10.43;;;;;;;;;;5066692;28;20044;-65
2021/10/10 07:44:30;;;;;;;26.45;9.98;;;;;;;;;;5057166;28;20056;-65
2021/10/10 07:47:14;;;;;;;23.95;9.45;;;;;;;;;;5056927;28;20107;-65
2021/10/10 07:49:43;;;;;;;26.30;9.68;;;;;;;;;;5057195;28;20080;-64
2021/10/10 07:52:12;;;;;;;23.52;10.75;;;;;;;;;;5068443;28;20051;-65
2021/10/10 07:54:41;;;;;;;21.45;9.05;;;;;;;;;;5069584;28;20136;-67
2021/10/10 07:57:10;;;;;;;19.30;8.27;;;;;;;;;;5065819;28;20155;-65
2021/10/10 07:59:38;;;;;;;21.73;9.48;;;;;;;;;;5056949;28;20088;-68
2021/10/10 08:02:07;;;;;;;25.40;10.32;;;;;;;;;;5059886;28;20558;-65
2021/10/10 08:04:35;;;;;;;22.98;10.18;;;;;;;;;;5047867;28;20052;-64
2021/10/10 08:07:04;;;;;;;22.77;9.57;;;;;;;;;;5064746;28;20044;-64
2021/10/10 08:09:33;;;;;;;22.77;9.73;;;;;;;;;;5053597;28;20076;-65
2021/10/10 08:12:03;;;;;;;23.38;9.80;;;;;;;;;;5065172;28;20053;-65
2021/10/10 08:14:34;;;;;;;19.77;9.32;;;;;;;;;;5058696;28;20053;-65
2021/10/10 08:17:03;;;;;;;23.58;10.40;;;;;;;;;;5059974;28;20056;-65
2021/10/10 08:19:31;;;;;;;20.55;9.20;;;;;;;;;;5061615;28;20052;-64
2021/10/10 08:22:00;;;;;;;30.08;10.65;;;;;;;;;;5065386;28;20787;-64
2021/10/10 08:24:30;;;;;;;28.40;10.95;;;;;;;;;;5062111;28;20157;-66
2021/10/10 08:26:58;;;;;;;21.58;9.90;;;;;;;;;;5057947;28;20161;-64
2021/10/10 08:29:28;;;;;;;18.17;9.68;;;;;;;;;;5067009;28;20153;-64
2021/10/10 08:31:56;;;;;;;29.58;11.00;;;;;;;;;;5067834;28;20122;-65
2021/10/10 08:34:25;;;;;;;23.10;10.45;;;;;;;;;;5066445;28;20670;-65
2021/10/10 08:36:53;;;;;;;26.02;10.15;;;;;;;;;;5067908;28;20059;-65
2021/10/10 08:39:24;;;;;;;21.73;10.32;;;;;;;;;;5066094;28;20049;-64
2021/10/10 08:41:55;;;;;;;24.45;9.80;;;;;;;;;;5065951;28;20167;-65
2021/10/10 08:44:29;;;;;;;19.23;9.10;;;;;;;;;;5067220;28;20052;-63
2021/10/10 08:47:02;;;;;;;22.55;10.13;;;;;;;;;;5068100;28;20738;-64
2021/10/10 08:49:37;;;;;;;23.25;9.43;;;;;;;;;;5064473;28;20102;-64
2021/10/10 08:52:07;;;;;;;20.52;9.73;;;;;;;;;;5066401;28;20052;-64
2021/10/10 08:54:50;;;;;;;21.95;9.82;;;;;;;;;;5066399;28;20522;-65
2021/10/10 08:57:18;;;;;;;23.38;10.40;;;;;;;;;;5067012;28;20097;-65
2021/10/10 08:59:52;;;;;;;26.08;10.50;;;;;;;;;;5066254;28;20056;-64
2021/10/10 09:02:25;;;;;;;23.42;10.88;;;;;;;;;;5072221;28;20045;-64
2021/10/10 09:04:54;;;;;;;24.52;10.02;;;;;;;;;;5067546;28;20044;-63
2021/10/10 09:07:23;;;;;;;23.88;9.70;;;;;;;;;;5069460;28;20098;-65
2021/10/10 09:09:52;;;;;;;19.00;9.50;;;;;;;;;;5063612;28;20102;-65
2021/10/10 09:12:20;;;;;;;23.25;10.02;;;;;;;;;;5069364;28;20504;-64
2021/10/10 09:14:50;;;;;;;20.13;9.65;;;;;;;;;;5068496;28;20045;-65
2021/10/10 09:17:20;;;;;;;23.95;9.73;;;;;;;;;;5070375;28;20492;-64
2021/10/10 09:19:51;;;;;;;18.25;8.32;;;;;;;;;;5059922;28;20199;-64
2021/10/10 09:22:21;;;;;;;22.85;9.63;;;;;;;;;;5053753;28;20072;-64
2021/10/10 09:24:50;;;;;;;23.40;9.38;;;;;;;;;;5057757;28;20465;-64
2021/10/10 09:27:20;;;;;;;27.77;9.73;;;;;;;;;;5051346;28;20105;-65
2021/10/10 09:29:51;;;;;;;18.50;8.93;;;;;;;;;;5068597;28;20052;-65
2021/10/10 09:32:22;;;;;;;22.20;10.27;;;;;;;;;;5068811;28;20048;-64
2021/10/10 09:34:52;;;;;;;23.40;9.60;;;;;;;;;;5062670;28;20060;-65
2021/10/10 09:37:23;;;;;;;25.05;9.40;;;;;;;;;;5069163;28;20079;-66
2021/10/10 09:39:57;;;;;;;21.42;10.40;;;;;;;;;;5062930;28;20055;-64
2021/10/10 09:42:35;;;;;;;21.02;8.90;;;;;;;;;;5069977;28;20048;-63
2021/10/10 09:45:14;;;;;;;17.75;9.13;;;;;;;;;;5069855;28;20130;-65
2021/10/10 09:47:51;;;;;;;18.65;9.52;;;;;;;;;;5075220;28;20059;-65
2021/10/10 09:50:21;;;;;;;19.98;8.90;;;;;;;;;;5064636;28;20044;-64
2021/10/10 09:53:00;;;;;;;22.45;10.15;;;;;;;;;;5068350;28;20168;-64
2021/10/10 09:55:29;;;;;;;18.17;8.80;;;;;;;;;;5063389;28;20056;-66
2021/10/10 09:57:58;;;;;;;19.08;9.25;;;;;;;;;;5062521;28;20156;-64
2021/10/10 10:00:28;;;;;;;19.38;9.75;;;;;;;;;;5063399;28;20421;-64
2021/10/10 10:03:02;;;;;;;23.33;9.90;;;;;;;;;;5060271;28;20096;-65
2021/10/10 10:05:33;;;;;;;18.00;9.60;;;;;;;;;;5067534;28;20566;-64
2021/10/10 10:08:02;;;;;;;21.30;9.20;;;;;;;;;;5068468;28;20044;-65
2021/10/10 10:10:33;;;;;;;19.52;9.70;;;;;;;;;;5066343;28;20114;-64
2021/10/10 10:13:02;;;;;;;23.90;10.05;;;;;;;;;;5067643;28;20048;-65
2021/10/10 10:15:31;;;;;;;22.30;9.38;;;;;;;;;;5065236;28;20069;-66
2021/10/10 10:18:00;;;;;;;19.65;9.65;;;;;;;;;;5061229;28;20076;-65
2021/10/10 10:20:30;;;;;;;20.38;8.85;;;;;;;;;;5068690;28;20049;-64
2021/10/10 10:23:00;;;;;;;24.42;9.93;;;;;;;;;;5067981;28;20040;-64
2021/10/10 10:25:29;;;;;;;19.33;8.48;;;;;;;;;;5063709;28;20056;-65
2021/10/10 10:27:58;;;;;;;21.08;9.57;;;;;;;;;;5066190;28;20363;-64
2021/10/10 10:30:27;;;;;;;19.98;9.20;;;;;;;;;;5064464;28;20059;-64
2021/10/10 10:32:56;;;;;;;20.65;9.80;;;;;;;;;;5067024;28;20488;-64
2021/10/10 10:35:24;;;;;;;21.60;9.10;;;;;;;;;;5056405;28;20103;-64
2021/10/10 10:37:55;;;;;;;25.05;9.85;;;;;;;;;;5061640;28;20995;-64
2021/10/10 10:40:39;;;;;;;21.33;10.63;;;;;;;;;;5067313;28;20478;-65
2021/10/10 10:43:13;;;;;;;28.30;10.77;;;;;;;;;;5058164;28;20090;-66
2021/10/10 10:45:45;;;;;;;20.13;8.60;;;;;;;;;;5068039;28;20052;-64
2021/10/10 10:48:38;;;;;;;19.50;8.73;;;;;;;;;;5068422;28;20049;-65
2021/10/10 10:51:26;;;;;;;20.45;9.43;;;;;;;;;;5050541;28;20060;-64
2021/10/10 10:53:54;;;;;;;20.23;8.60;;;;;;;;;;5049540;28;20044;-65
2021/10/10 10:56:27;;;;;;;18.45;8.63;;;;;;;;;;5049427;28;20401;-65
2021/10/10 10:58:59;;;;;;;23.40;10.02;;;;;;;;;;5066030;28;20059;-66
2021/10/10 11:01:28;;;;;;;17.25;9.20;;;;;;;;;;5068361;28;20118;-63
2021/10/10 11:04:12;;;;;;;22.33;8.90;;;;;;;;;;5069873;28;20083;-66
2021/10/10 11:06:53;;;;;;;20.42;8.65;;;;;;;;;;5072031;28;20522;-65
2021/10/10 11:09:25;;;;;;;20.33;8.82;;;;;;;;;;5072761;28;20564;-65
2021/10/10 11:12:00;;;;;;;21.60;9.75;;;;;;;;;;5071088;28;20083;-64
2021/10/10 11:14:31;;;;;;;20.20;9.30;;;;;;;;;;5071217;28;20056;-64
2021/10/10 11:17:07;;;;;;;19.50;9.25;;;;;;;;;;5068671;28;20500;-66
2021/10/10 11:19:35;;;;;;;16.10;8.32;;;;;;;;;;5064944;28;20508;-64
2021/10/10 11:22:04;;;;;;;19.25;8.55;;;;;;;;;;5070148;28;20584;-64
2021/10/10 11:24:33;;;;;;;19.73;9.02;;;;;;;;;;5071054;28;20484;-65
2021/10/10 11:27:11;;;;;;;24.42;8.40;;;;;;;;;;5068527;28;20155;-64
2021/10/10 11:29:49;;;;;;;15.45;8.00;;;;;;;;;;5057024;28;20079;-65
2021/10/10 11:32:18;;;;;;;19.92;8.38;;;;;;;;;;5061936;28;20507;-66
2021/10/10 11:34:56;;;;;;;22.42;9.38;;;;;;;;;;5064495;28;20045;-65
2021/10/10 11:37:25;;;;;;;17.90;9.25;;;;;;;;;;5058976;28;20049;-64
2021/10/10 11:40:08;;;;;;;17.95;8.77;;;;;;;;;;5060558;28;20045;-66
2021/10/10 11:42:38;;;;;;;19.60;8.02;;;;;;;;;;5061208;28;20088;-64
2021/10/10 11:45:08;;;;;;;18.08;8.15;;;;;;;;;;5068544;28;20381;-63
2021/10/10 11:47:56;;;;;;;15.40;7.88;;;;;;;;;;5069959;28;20040;-65
2021/10/10 11:50:24;;;;;;;15.35;7.85;;;;;;;;;;5060256;28;20118;-65
2021/10/10 11:52:57;;;;;;;18.88;7.93;;;;;;;;;;5071823;28;20056;-64
2021/10/10 11:55:33;;;;;;;18.98;8.25;;;;;;;;;;5070798;28;20080;-63
2021/10/10 11:58:02;;;;;;;17.55;7.82;;;;;;;;;;5071871;28;20499;-64
2021/10/10 12:00:33;;;;;;;17.60;7.72;;;;;;;;;;5071952;28;20044;-65
2021/10/10 12:03:06;;;;;;;17.88;7.45;;;;;;;;;;5071857;28;20424;-65
2021/10/10 12:05:40;;;;;;;17.38;7.43;;;;;;;;;;5071215;28;20139;-64
2021/10/10 12:08:19;;;;;;;13.18;6.78;;;;;;;;;;5067135;28;20131;-65
2021/10/10 12:10:49;;;;;;;17.88;6.85;;;;;;;;;;5072470;28;20102;-64
2021/10/10 12:13:18;;;;;;;18.65;7.82;;;;;;;;;;5071297;28;20363;-65
2021/10/10 12:15:57;;;;;;;15.23;7.25;;;;;;;;;;5071737;28;20049;-65
2021/10/10 12:18:29;;;;;;;14.95;6.97;;;;;;;;;;5066777;28;20049;-64
2021/10/10 12:21:12;;;;;;;15.57;7.40;;;;;;;;;;5071393;28;20507;-66
2021/10/10 12:23:41;;;;;;;14.82;6.38;;;;;;;;;;5061719;28;20046;-64
2021/10/10 12:26:11;;;;;;;14.68;6.45;;;;;;;;;;5062691;28;20222;-65
2021/10/10 12:28:40;;;;;;;15.68;6.82;;;;;;;;;;5052129;28;20073;-65
2021/10/10 12:31:10;;;;;;;15.13;6.65;;;;;;;;;;5065868;28;20048;-65
2021/10/10 12:33:40;;;;;;;15.30;6.57;;;;;;;;;;5070642;28;20159;-65
2021/10/10 12:36:10;;;;;;;16.35;6.55;;;;;;;;;;5070806;28;20385;-65
2021/10/10 12:38:39;;;;;;;13.50;6.32;;;;;;;;;;5070042;28;20056;-65
2021/10/10 12:41:26;;;;;;;13.63;5.95;;;;;;;;;;5065811;28;20083;-64
2021/10/10 12:43:58;;;;;;;15.77;7.13;;;;;;;;;;5069103;28;20078;-64
2021/10/10 12:46:28;;;;;;;16.25;5.95;;;;;;;;;;5069121;28;20511;-65
2021/10/10 12:49:00;;;;;;;15.02;6.43;;;;;;;;;;5070501;28;20086;-65
2021/10/10 12:51:28;;;;;;;13.07;6.65;;;;;;;;;;5058652;28;20056;-64
2021/10/10 12:54:11;;;;;;;15.27;5.75;;;;;;;;;;5060151;28;20059;-65
2021/10/10 12:56:40;;;;;;;12.02;6.00;;;;;;;;;;5051247;28;20136;-64
2021/10/10 12:59:09;;;;;;;13.82;6.00;;;;;;;;;;5067446;28;20511;-65
2021/10/10 13:01:39;;;;;;;14.13;6.55;;;;;;;;;;5067882;28;20052;-64
2021/10/10 13:04:14;;;;;;;12.25;5.93;;;;;;;;;;5061765;28;20760;-64
2021/10/10 13:06:44;;;;;;;13.57;5.88;;;;;;;;;;5053259;28;20045;-65
2021/10/10 13:09:12;;;;;;;10.82;4.90;;;;;;;;;;5055005;28;20086;-64
2021/10/10 13:11:41;;;;;;;10.98;5.20;;;;;;;;;;5059071;28;20048;-64
2021/10/10 13:14:10;;;;;;;12.48;5.85;;;;;;;;;;5067384;28;20087;-65
2021/10/10 13:16:41;;;;;;;12.60;5.97;;;;;;;;;;5053104;28;20049;-65
2021/10/10 13:19:10;;;;;;;12.63;5.53;;;;;;;;;;5070392;28;20098;-67
2021/10/10 13:21:39;;;;;;;13.38;5.68;;;;;;;;;;5070502;28;20503;-65
2021/10/10 13:24:08;;;;;;;12.82;6.22;;;;;;;;;;5063576;28;20060;-68
2021/10/10 13:26:37;;;;;;;10.13;5.63;;;;;;;;;;5062143;28;20060;-65
2021/10/10 13:29:07;;;;;;;11.90;5.20;;;;;;;;;;5059920;28;20071;-64
2021/10/10 13:31:36;;;;;;;11.30;5.70;;;;;;;;;;5061897;28;20053;-66
2021/10/10 13:34:06;;;;;;;13.23;5.00;;;;;;;;;;5053867;28;20048;-64
2021/10/10 13:36:34;;;;;;;8.55;4.65;;;;;;;;;;5057364;28;20143;-65
2021/10/10 13:39:04;;;;;;;7.95;4.78;;;;;;;;;;5068109;28;20079;-65
2021/10/10 13:41:33;;;;;;;11.45;5.68;;;;;;;;;;5069221;28;20053;-64
2021/10/10 13:44:01;;;;;;;13.63;5.32;;;;;;;;;;5055720;28;20048;-65
2021/10/10 13:46:30;;;;;;;11.93;5.47;;;;;;;;;;5059377;28;20082;-64
2021/10/10 13:48:58;;;;;;;12.45;5.00;;;;;;;;;;5070207;28;20052;-65
2021/10/10 13:51:28;;;;;;;9.75;5.25;;;;;;;;;;5069753;28;20044;-64
2021/10/10 13:53:57;;;;;;;14.43;5.70;;;;;;;;;;5055058;28;20046;-65
2021/10/10 13:56:26;;;;;;;11.27;4.90;;;;;;;;;;5059259;28;20435;-65
2021/10/10 13:58:54;;;;;;;14.48;5.55;;;;;;;;;;5059414;28;20098;-65
2021/10/10 14:01:23;;;;;;;10.40;5.43;;;;;;;;;;5065144;28;20056;-65
2021/10/10 14:03:52;;;;;;;18.27;5.28;;;;;;;;;;5055063;28;20053;-64
2021/10/10 14:06:20;;;;;;;11.32;5.25;;;;;;;;;;5064971;28;20469;-64
2021/10/10 14:08:53;;;;;;;8.65;5.05;;;;;;;;;;5052396;28;20049;-65
2021/10/10 14:11:21;;;;;;;11.13;4.72;;;;;;;;;;5059120;28;20079;-65
2021/10/10 14:13:49;;;;;;;10.70;5.53;;;;;;;;;;5056826;28;20056;-64
2021/10/10 14:16:20;;;;;;;13.73;5.75;;;;;;;;;;5062064;28;20468;-64
2021/10/10 14:18:49;;;;;;;9.13;4.93;;;;;;;;;;5079461;28;20052;-64
2021/10/10 14:21:18;;;;;;;10.23;4.55;;;;;;;;;;5069569;28;20048;-65
2021/10/10 14:23:46;;;;;;;8.48;4.28;;;;;;;;;;5062811;28;20139;-66
2021/10/10 14:26:16;;;;;;;11.65;5.20;;;;;;;;;;5055623;28;20051;-65
2021/10/10 14:28:44;;;;;;;8.98;4.75;;;;;;;;;;5057151;28;20496;-65
2021/10/10 14:31:13;;;;;;;12.60;4.72;;;;;;;;;;5058729;28;20575;-65
2021/10/10 14:33:42;;;;;;;8.27;4.68;;;;;;;;;;5062741;28;20052;-65
2021/10/10 14:36:11;;;;;;;11.98;4.88;;;;;;;;;;5052513;28;20549;-65
2021/10/10 14:38:40;;;;;;;14.43;5.05;;;;;;;;;;5068629;28;20080;-67
2021/10/10 14:41:18;;;;;;;11.77;5.53;;;;;;;;;;5054480;28;20044;-65
2021/10/10 14:44:00;;;;;;;8.65;4.68;;;;;;;;;;5058355;28;20072;-65
2021/10/10 14:46:30;;;;;;;10.45;5.07;;;;;;;;;;5034232;28;20053;-66
2021/10/10 14:48:59;;;;;;;12.18;4.68;;;;;;;;;;5036210;28;20056;-66
2021/10/10 14:51:28;;;;;;;8.70;4.90;;;;;;;;;;5040203;28;20049;-64